sensor_id;sensor_type;location;lat;lon;timestamp;P1;durP1;ratioP1;P2;durP2;ratioP2
80215;SDS011;69532;37.974;23.708;2023-05-10T00:01:25;7.20;;;3.40;;
80215;SDS011;69532;37.974;23.708;2023-05-10T00:03:50;6.25;;;3.47;;
80215;SDS011;69532;37.974;23.708;2023-05-10T00:06:16;7.93;;;3.25;;
80215;SDS011;69532;37.974;23.708;2023-05-10T00:08:42;6.13;;;3.50;;
80215;SDS011;69532;37.974;23.708;2023-05-10T00:11:07;7.63;;;3.72;;
80215;SDS011;69532;37.974;23.708;2023-05-10T00:13:33;5.88;;;3.53;;
80215;SDS011;69532;37.974;23.708;2023-05-10T00:15:59;8.63;;;3.85;;
80215;SDS011;69532;37.974;23.708;2023-05-10T00:18:25;7.95;;;3.80;;
80215;SDS011;69532;37.974;23.708;2023-05-10T00:20:50;6.93;;;3.60;;
80215;SDS011;69532;37.974;23.708;2023-05-10T00:23:16;8.07;;;3.80;;
80215;SDS011;69532;37.974;23.708;2023-05-10T00:25:42;7.07;;;3.80;;
80215;SDS011;69532;37.974;23.708;2023-05-10T00:28:07;6.63;;;3.40;;
80215;SDS011;69532;37.974;23.708;2023-05-10T00:30:33;6.47;;;3.60;;
80215;SDS011;69532;37.974;23.708;2023-05-10T00:32:59;7.18;;;3.92;;
80215;SDS011;69532;37.974;23.708;2023-05-10T00:35:25;6.82;;;3.95;;
80215;SDS011;69532;37.974;23.708;2023-05-10T00:37:51;6.63;;;3.90;;
80215;SDS011;69532;37.974;23.708;2023-05-10T00:40:16;7.13;;;3.75;;
80215;SDS011;69532;37.974;23.708;2023-05-10T00:42:42;8.68;;;3.35;;
80215;SDS011;69532;37.974;23.708;2023-05-10T00:45:08;6.38;;;3.40;;
80215;SDS011;69532;37.974;23.708;2023-05-10T00:47:34;6.03;;;3.55;;
80215;SDS011;69532;37.974;23.708;2023-05-10T00:50:00;6.78;;;3.47;;
80215;SDS011;69532;37.974;23.708;2023-05-10T00:52:29;6.95;;;3.50;;
80215;SDS011;69532;37.974;23.708;2023-05-10T00:54:55;7.30;;;3.42;;
80215;SDS011;69532;37.974;23.708;2023-05-10T00:57:21;7.80;;;3.53;;
80215;SDS011;69532;37.974;23.708;2023-05-10T00:59:48;5.40;;;3.00;;
80215;SDS011;69532;37.974;23.708;2023-05-10T01:02:14;6.38;;;3.13;;
80215;SDS011;69532;37.974;23.708;2023-05-10T01:04:40;6.20;;;2.92;;
80215;SDS011;69532;37.974;23.708;2023-05-10T01:07:06;5.80;;;3.15;;
80215;SDS011;69532;37.974;23.708;2023-05-10T01:09:31;7.68;;;3.53;;
80215;SDS011;69532;37.974;23.708;2023-05-10T01:11:58;6.55;;;3.20;;
80215;SDS011;69532;37.974;23.708;2023-05-10T01:14:25;7.43;;;3.20;;
80215;SDS011;69532;37.974;23.708;2023-05-10T01:16:52;6.35;;;3.15;;
80215;SDS011;69532;37.974;23.708;2023-05-10T01:19:28;8.30;;;3.40;;
80215;SDS011;69532;37.974;23.708;2023-05-10T01:27:37;7.28;;;3.20;;
80215;SDS011;69532;37.974;23.708;2023-05-10T01:33:01;6.82;;;2.83;;
80215;SDS011;69532;37.974;23.708;2023-05-10T01:38:52;5.82;;;2.83;;
80215;SDS011;69532;37.974;23.708;2023-05-10T01:44:01;5.68;;;2.70;;
80215;SDS011;69532;37.974;23.708;2023-05-10T01:46:31;6.47;;;2.90;;
80215;SDS011;69532;37.974;23.708;2023-05-10T01:49:02;7.88;;;2.78;;
80215;SDS011;69532;37.974;23.708;2023-05-10T01:51:38;7.03;;;3.15;;
80215;SDS011;69532;37.974;23.708;2023-05-10T01:54:13;7.32;;;2.97;;
80215;SDS011;69532;37.974;23.708;2023-05-10T01:56:42;6.57;;;2.70;;
80215;SDS011;69532;37.974;23.708;2023-05-10T01:59:15;5.80;;;2.60;;
80215;SDS011;69532;37.974;23.708;2023-05-10T02:04:10;8.45;;;2.80;;
80215;SDS011;69532;37.974;23.708;2023-05-10T02:06:40;5.65;;;2.50;;
80215;SDS011;69532;37.974;23.708;2023-05-10T02:09:07;6.15;;;2.58;;
80215;SDS011;69532;37.974;23.708;2023-05-10T02:11:37;6.78;;;2.80;;
80215;SDS011;69532;37.974;23.708;2023-05-10T02:14:05;6.25;;;2.30;;
80215;SDS011;69532;37.974;23.708;2023-05-10T02:16:34;7.35;;;2.88;;
80215;SDS011;69532;37.974;23.708;2023-05-10T02:19:01;6.13;;;2.38;;
80215;SDS011;69532;37.974;23.708;2023-05-10T02:21:28;6.70;;;2.80;;
80215;SDS011;69532;37.974;23.708;2023-05-10T02:23:55;6.63;;;2.40;;
80215;SDS011;69532;37.974;23.708;2023-05-10T02:26:23;5.22;;;2.25;;
80215;SDS011;69532;37.974;23.708;2023-05-10T02:28:51;5.78;;;2.60;;
80215;SDS011;69532;37.974;23.708;2023-05-10T02:31:18;5.20;;;2.20;;
80215;SDS011;69532;37.974;23.708;2023-05-10T02:33:45;4.95;;;2.33;;
80215;SDS011;69532;37.974;23.708;2023-05-10T02:36:12;7.25;;;2.38;;
80215;SDS011;69532;37.974;23.708;2023-05-10T02:38:38;5.88;;;2.67;;
80215;SDS011;69532;37.974;23.708;2023-05-10T02:41:05;4.97;;;2.20;;
80215;SDS011;69532;37.974;23.708;2023-05-10T02:43:33;6.55;;;2.25;;
80215;SDS011;69532;37.974;23.708;2023-05-10T02:46:01;6.50;;;2.30;;
80215;SDS011;69532;37.974;23.708;2023-05-10T02:48:27;6.38;;;2.38;;
80215;SDS011;69532;37.974;23.708;2023-05-10T02:50:54;6.65;;;2.20;;
80215;SDS011;69532;37.974;23.708;2023-05-10T02:53:29;8.52;;;2.50;;
80215;SDS011;69532;37.974;23.708;2023-05-10T02:55:57;5.40;;;2.40;;
80215;SDS011;69532;37.974;23.708;2023-05-10T02:58:25;5.90;;;2.40;;
80215;SDS011;69532;37.974;23.708;2023-05-10T03:00:51;6.68;;;2.50;;
80215;SDS011;69532;37.974;23.708;2023-05-10T03:03:17;6.43;;;2.17;;
80215;SDS011;69532;37.974;23.708;2023-05-10T03:05:43;7.47;;;2.42;;
80215;SDS011;69532;37.974;23.708;2023-05-10T03:08:08;6.45;;;2.33;;
80215;SDS011;69532;37.974;23.708;2023-05-10T03:10:47;5.15;;;2.10;;
80215;SDS011;69532;37.974;23.708;2023-05-10T03:13:28;6.22;;;2.30;;
80215;SDS011;69532;37.974;23.708;2023-05-10T03:16:16;5.80;;;2.30;;
80215;SDS011;69532;37.974;23.708;2023-05-10T03:19:12;5.13;;;2.10;;
80215;SDS011;69532;37.974;23.708;2023-05-10T03:21:52;6.88;;;2.30;;
80215;SDS011;69532;37.974;23.708;2023-05-10T03:24:21;5.50;;;2.15;;
80215;SDS011;69532;37.974;23.708;2023-05-10T03:26:50;7.70;;;2.60;;
80215;SDS011;69532;37.974;23.708;2023-05-10T03:29:20;6.53;;;2.35;;
80215;SDS011;69532;37.974;23.708;2023-05-10T03:31:48;6.00;;;2.38;;
80215;SDS011;69532;37.974;23.708;2023-05-10T03:34:13;4.88;;;2.00;;
80215;SDS011;69532;37.974;23.708;2023-05-10T03:36:39;5.97;;;1.90;;
80215;SDS011;69532;37.974;23.708;2023-05-10T03:39:05;7.13;;;2.40;;
80215;SDS011;69532;37.974;23.708;2023-05-10T03:41:30;6.35;;;2.20;;
80215;SDS011;69532;37.974;23.708;2023-05-10T03:43:56;4.57;;;2.00;;
80215;SDS011;69532;37.974;23.708;2023-05-10T03:46:22;6.13;;;2.53;;
80215;SDS011;69532;37.974;23.708;2023-05-10T03:48:47;5.00;;;2.20;;
80215;SDS011;69532;37.974;23.708;2023-05-10T03:51:13;4.97;;;2.00;;
80215;SDS011;69532;37.974;23.708;2023-05-10T03:53:39;4.88;;;2.25;;
80215;SDS011;69532;37.974;23.708;2023-05-10T03:56:04;5.22;;;2.03;;
80215;SDS011;69532;37.974;23.708;2023-05-10T03:58:30;6.97;;;2.33;;
80215;SDS011;69532;37.974;23.708;2023-05-10T04:00:56;6.65;;;2.40;;
80215;SDS011;69532;37.974;23.708;2023-05-10T04:03:21;5.07;;;2.00;;
80215;SDS011;69532;37.974;23.708;2023-05-10T04:05:47;5.20;;;2.17;;
80215;SDS011;69532;37.974;23.708;2023-05-10T04:08:13;5.18;;;2.35;;
80215;SDS011;69532;37.974;23.708;2023-05-10T04:10:41;6.97;;;2.33;;
80215;SDS011;69532;37.974;23.708;2023-05-10T04:13:07;7.03;;;2.20;;
80215;SDS011;69532;37.974;23.708;2023-05-10T04:15:32;6.35;;;2.08;;
80215;SDS011;69532;37.974;23.708;2023-05-10T04:17:58;6.50;;;2.33;;
80215;SDS011;69532;37.974;23.708;2023-05-10T04:20:24;7.65;;;2.70;;
80215;SDS011;69532;37.974;23.708;2023-05-10T04:22:50;6.88;;;2.55;;
80215;SDS011;69532;37.974;23.708;2023-05-10T04:25:15;7.13;;;2.40;;
80215;SDS011;69532;37.974;23.708;2023-05-10T04:27:42;4.60;;;2.28;;
80215;SDS011;69532;37.974;23.708;2023-05-10T04:30:07;7.50;;;2.70;;
80215;SDS011;69532;37.974;23.708;2023-05-10T04:32:33;9.05;;;2.85;;
80215;SDS011;69532;37.974;23.708;2023-05-10T04:34:59;7.07;;;2.58;;
80215;SDS011;69532;37.974;23.708;2023-05-10T04:37:25;7.72;;;2.60;;
80215;SDS011;69532;37.974;23.708;2023-05-10T04:39:50;8.43;;;2.85;;
80215;SDS011;69532;37.974;23.708;2023-05-10T04:42:16;7.22;;;2.53;;
80215;SDS011;69532;37.974;23.708;2023-05-10T04:44:42;9.65;;;2.22;;
80215;SDS011;69532;37.974;23.708;2023-05-10T04:47:08;5.93;;;2.58;;
80215;SDS011;69532;37.974;23.708;2023-05-10T04:49:34;7.93;;;2.70;;
80215;SDS011;69532;37.974;23.708;2023-05-10T04:51:59;6.38;;;2.63;;
80215;SDS011;69532;37.974;23.708;2023-05-10T04:54:25;7.28;;;2.70;;
80215;SDS011;69532;37.974;23.708;2023-05-10T04:56:51;7.43;;;2.83;;
80215;SDS011;69532;37.974;23.708;2023-05-10T04:59:16;6.28;;;2.55;;
80215;SDS011;69532;37.974;23.708;2023-05-10T05:01:42;7.07;;;2.88;;
80215;SDS011;69532;37.974;23.708;2023-05-10T05:04:08;6.80;;;2.35;;
80215;SDS011;69532;37.974;23.708;2023-05-10T05:06:34;6.68;;;2.30;;
80215;SDS011;69532;37.974;23.708;2023-05-10T05:08:59;5.82;;;2.60;;
80215;SDS011;69532;37.974;23.708;2023-05-10T05:11:25;6.00;;;2.50;;
80215;SDS011;69532;37.974;23.708;2023-05-10T05:13:51;6.60;;;2.15;;
80215;SDS011;69532;37.974;23.708;2023-05-10T05:16:16;6.57;;;2.63;;
80215;SDS011;69532;37.974;23.708;2023-05-10T05:18:42;6.50;;;2.65;;
80215;SDS011;69532;37.974;23.708;2023-05-10T05:21:14;6.55;;;2.45;;
80215;SDS011;69532;37.974;23.708;2023-05-10T05:23:41;7.80;;;2.67;;
80215;SDS011;69532;37.974;23.708;2023-05-10T05:26:06;6.32;;;2.45;;
80215;SDS011;69532;37.974;23.708;2023-05-10T05:28:32;5.72;;;2.30;;
80215;SDS011;69532;37.974;23.708;2023-05-10T05:31:02;6.45;;;2.55;;
80215;SDS011;69532;37.974;23.708;2023-05-10T05:33:30;5.47;;;2.33;;
80215;SDS011;69532;37.974;23.708;2023-05-10T05:35:56;5.57;;;2.28;;
80215;SDS011;69532;37.974;23.708;2023-05-10T05:38:22;5.20;;;2.40;;
80215;SDS011;69532;37.974;23.708;2023-05-10T05:40:48;6.10;;;2.33;;
80215;SDS011;69532;37.974;23.708;2023-05-10T05:43:14;6.00;;;2.50;;
80215;SDS011;69532;37.974;23.708;2023-05-10T05:45:40;6.50;;;2.40;;
80215;SDS011;69532;37.974;23.708;2023-05-10T05:48:06;6.60;;;2.25;;
80215;SDS011;69532;37.974;23.708;2023-05-10T05:50:31;5.65;;;2.00;;
80215;SDS011;69532;37.974;23.708;2023-05-10T05:52:57;5.22;;;2.33;;
80215;SDS011;69532;37.974;23.708;2023-05-10T05:55:23;4.40;;;2.05;;
80215;SDS011;69532;37.974;23.708;2023-05-10T05:57:49;7.40;;;2.20;;
80215;SDS011;69532;37.974;23.708;2023-05-10T06:00:15;5.53;;;2.10;;
80215;SDS011;69532;37.974;23.708;2023-05-10T06:02:41;6.28;;;2.40;;
80215;SDS011;69532;37.974;23.708;2023-05-10T06:05:06;4.80;;;2.20;;
80215;SDS011;69532;37.974;23.708;2023-05-10T06:07:32;5.47;;;2.20;;
80215;SDS011;69532;37.974;23.708;2023-05-10T06:09:58;4.70;;;2.20;;
80215;SDS011;69532;37.974;23.708;2023-05-10T06:12:24;5.95;;;2.30;;
80215;SDS011;69532;37.974;23.708;2023-05-10T06:14:50;5.03;;;2.03;;
80215;SDS011;69532;37.974;23.708;2023-05-10T06:17:16;4.88;;;2.20;;
80215;SDS011;69532;37.974;23.708;2023-05-10T06:19:41;6.72;;;2.15;;
80215;SDS011;69532;37.974;23.708;2023-05-10T06:22:07;7.18;;;2.40;;
80215;SDS011;69532;37.974;23.708;2023-05-10T06:24:32;4.95;;;2.20;;
80215;SDS011;69532;37.974;23.708;2023-05-10T06:26:58;5.20;;;2.20;;
80215;SDS011;69532;37.974;23.708;2023-05-10T06:29:25;5.75;;;2.30;;
80215;SDS011;69532;37.974;23.708;2023-05-10T06:31:51;6.53;;;2.63;;
80215;SDS011;69532;37.974;23.708;2023-05-10T06:34:16;5.53;;;2.20;;
80215;SDS011;69532;37.974;23.708;2023-05-10T06:36:42;5.95;;;2.13;;
80215;SDS011;69532;37.974;23.708;2023-05-10T06:39:08;7.45;;;2.13;;
80215;SDS011;69532;37.974;23.708;2023-05-10T06:41:33;6.32;;;2.00;;
80215;SDS011;69532;37.974;23.708;2023-05-10T06:43:59;6.72;;;2.15;;
80215;SDS011;69532;37.974;23.708;2023-05-10T06:46:25;5.28;;;2.30;;
80215;SDS011;69532;37.974;23.708;2023-05-10T06:48:51;4.95;;;2.20;;
80215;SDS011;69532;37.974;23.708;2023-05-10T06:51:16;5.88;;;2.28;;
80215;SDS011;69532;37.974;23.708;2023-05-10T06:53:42;5.88;;;2.10;;
80215;SDS011;69532;37.974;23.708;2023-05-10T06:56:08;5.57;;;2.30;;
80215;SDS011;69532;37.974;23.708;2023-05-10T06:58:34;5.70;;;2.10;;
80215;SDS011;69532;37.974;23.708;2023-05-10T07:01:03;5.07;;;2.10;;
80215;SDS011;69532;37.974;23.708;2023-05-10T07:03:30;5.80;;;2.28;;
80215;SDS011;69532;37.974;23.708;2023-05-10T07:06:02;4.75;;;2.00;;
80215;SDS011;69532;37.974;23.708;2023-05-10T07:08:31;5.40;;;2.30;;
80215;SDS011;69532;37.974;23.708;2023-05-10T07:11:04;7.75;;;2.10;;
80215;SDS011;69532;37.974;23.708;2023-05-10T07:13:35;4.22;;;1.90;;
80215;SDS011;69532;37.974;23.708;2023-05-10T07:16:01;4.85;;;2.08;;
80215;SDS011;69532;37.974;23.708;2023-05-10T07:18:27;4.70;;;2.00;;
80215;SDS011;69532;37.974;23.708;2023-05-10T07:20:53;5.20;;;2.20;;
80215;SDS011;69532;37.974;23.708;2023-05-10T07:23:18;5.15;;;2.10;;
80215;SDS011;69532;37.974;23.708;2023-05-10T07:25:48;5.07;;;2.30;;
80215;SDS011;69532;37.974;23.708;2023-05-10T07:28:14;7.10;;;2.35;;
80215;SDS011;69532;37.974;23.708;2023-05-10T07:30:41;5.75;;;2.28;;
80215;SDS011;69532;37.974;23.708;2023-05-10T07:33:08;5.38;;;2.60;;
80215;SDS011;69532;37.974;23.708;2023-05-10T07:35:34;5.75;;;2.45;;
80215;SDS011;69532;37.974;23.708;2023-05-10T07:38:01;5.13;;;2.42;;
80215;SDS011;69532;37.974;23.708;2023-05-10T07:40:27;6.45;;;2.45;;
80215;SDS011;69532;37.974;23.708;2023-05-10T07:42:53;5.50;;;2.30;;
80215;SDS011;69532;37.974;23.708;2023-05-10T07:45:19;5.13;;;2.10;;
80215;SDS011;69532;37.974;23.708;2023-05-10T07:47:45;7.82;;;2.75;;
80215;SDS011;69532;37.974;23.708;2023-05-10T07:50:10;4.70;;;2.00;;
80215;SDS011;69532;37.974;23.708;2023-05-10T07:52:36;5.35;;;2.28;;
80215;SDS011;69532;37.974;23.708;2023-05-10T07:55:02;5.22;;;2.15;;
80215;SDS011;69532;37.974;23.708;2023-05-10T07:57:28;6.72;;;2.38;;
80215;SDS011;69532;37.974;23.708;2023-05-10T07:59:54;5.95;;;2.42;;
80215;SDS011;69532;37.974;23.708;2023-05-10T08:02:19;6.00;;;2.60;;
80215;SDS011;69532;37.974;23.708;2023-05-10T08:04:45;7.80;;;2.78;;
80215;SDS011;69532;37.974;23.708;2023-05-10T08:07:11;5.20;;;2.40;;
80215;SDS011;69532;37.974;23.708;2023-05-10T08:09:37;5.70;;;2.30;;
80215;SDS011;69532;37.974;23.708;2023-05-10T08:12:02;5.20;;;2.50;;
80215;SDS011;69532;37.974;23.708;2023-05-10T08:14:28;5.85;;;2.72;;
80215;SDS011;69532;37.974;23.708;2023-05-10T08:16:54;5.43;;;2.30;;
80215;SDS011;69532;37.974;23.708;2023-05-10T08:19:21;6.72;;;2.42;;
80215;SDS011;69532;37.974;23.708;2023-05-10T08:21:47;5.95;;;2.63;;
80215;SDS011;69532;37.974;23.708;2023-05-10T08:24:13;6.05;;;2.50;;
80215;SDS011;69532;37.974;23.708;2023-05-10T08:26:39;5.80;;;2.35;;
80215;SDS011;69532;37.974;23.708;2023-05-10T08:29:05;5.43;;;2.45;;
80215;SDS011;69532;37.974;23.708;2023-05-10T08:31:31;5.93;;;2.40;;
80215;SDS011;69532;37.974;23.708;2023-05-10T08:33:57;5.50;;;2.60;;
80215;SDS011;69532;37.974;23.708;2023-05-10T08:36:22;5.43;;;2.53;;
80215;SDS011;69532;37.974;23.708;2023-05-10T08:38:52;5.95;;;2.60;;
80215;SDS011;69532;37.974;23.708;2023-05-10T08:41:22;5.80;;;2.28;;
80215;SDS011;69532;37.974;23.708;2023-05-10T08:43:52;6.90;;;2.50;;
80215;SDS011;69532;37.974;23.708;2023-05-10T08:46:19;5.22;;;2.40;;
80215;SDS011;69532;37.974;23.708;2023-05-10T08:48:46;5.00;;;2.40;;
80215;SDS011;69532;37.974;23.708;2023-05-10T08:51:14;6.07;;;2.47;;
80215;SDS011;69532;37.974;23.708;2023-05-10T08:53:42;6.25;;;2.50;;
80215;SDS011;69532;37.974;23.708;2023-05-10T08:56:09;5.75;;;2.70;;
80215;SDS011;69532;37.974;23.708;2023-05-10T08:58:34;5.38;;;2.33;;
80215;SDS011;69532;37.974;23.708;2023-05-10T09:01:01;5.35;;;2.05;;
80215;SDS011;69532;37.974;23.708;2023-05-10T09:03:31;5.97;;;2.30;;
80215;SDS011;69532;37.974;23.708;2023-05-10T09:05:57;6.10;;;2.47;;
80215;SDS011;69532;37.974;23.708;2023-05-10T09:08:23;5.50;;;2.47;;
80215;SDS011;69532;37.974;23.708;2023-05-10T09:10:53;5.13;;;2.13;;
80215;SDS011;69532;37.974;23.708;2023-05-10T09:13:20;5.72;;;2.58;;
80215;SDS011;69532;37.974;23.708;2023-05-10T09:15:47;5.43;;;2.75;;
80215;SDS011;69532;37.974;23.708;2023-05-10T09:18:13;5.07;;;2.40;;
80215;SDS011;69532;37.974;23.708;2023-05-10T09:20:40;5.95;;;2.72;;
80215;SDS011;69532;37.974;23.708;2023-05-10T09:23:05;5.28;;;2.35;;
80215;SDS011;69532;37.974;23.708;2023-05-10T09:25:31;5.78;;;2.10;;
80215;SDS011;69532;37.974;23.708;2023-05-10T09:28:00;6.07;;;2.58;;
80215;SDS011;69532;37.974;23.708;2023-05-10T09:30:27;7.78;;;2.70;;
80215;SDS011;69532;37.974;23.708;2023-05-10T09:32:55;6.10;;;2.50;;
80215;SDS011;69532;37.974;23.708;2023-05-10T09:35:25;4.63;;;2.20;;
80215;SDS011;69532;37.974;23.708;2023-05-10T09:37:54;6.25;;;2.50;;
80215;SDS011;69532;37.974;23.708;2023-05-10T09:40:22;7.15;;;2.55;;
80215;SDS011;69532;37.974;23.708;2023-05-10T09:45:21;5.07;;;2.45;;
80215;SDS011;69532;37.974;23.708;2023-05-10T09:47:48;5.30;;;2.30;;
80215;SDS011;69532;37.974;23.708;2023-05-10T09:50:14;5.63;;;2.15;;
80215;SDS011;69532;37.974;23.708;2023-05-10T09:52:47;5.10;;;2.38;;
80215;SDS011;69532;37.974;23.708;2023-05-10T09:55:13;6.03;;;2.67;;
80215;SDS011;69532;37.974;23.708;2023-05-10T09:57:40;6.95;;;2.58;;
80215;SDS011;69532;37.974;23.708;2023-05-10T10:00:06;5.93;;;2.60;;
80215;SDS011;69532;37.974;23.708;2023-05-10T10:02:32;7.38;;;2.40;;
80215;SDS011;69532;37.974;23.708;2023-05-10T10:05:00;5.20;;;1.98;;
80215;SDS011;69532;37.974;23.708;2023-05-10T10:07:27;5.00;;;2.00;;
80215;SDS011;69532;37.974;23.708;2023-05-10T10:09:53;6.75;;;2.17;;
80215;SDS011;69532;37.974;23.708;2023-05-10T10:12:19;6.75;;;2.20;;
80215;SDS011;69532;37.974;23.708;2023-05-10T10:14:48;5.82;;;2.13;;
80215;SDS011;69532;37.974;23.708;2023-05-10T10:17:15;4.70;;;2.00;;
80215;SDS011;69532;37.974;23.708;2023-05-10T10:19:41;4.40;;;1.95;;
80215;SDS011;69532;37.974;23.708;2023-05-10T10:22:07;6.10;;;2.33;;
80215;SDS011;69532;37.974;23.708;2023-05-10T10:24:35;5.07;;;1.90;;
80215;SDS011;69532;37.974;23.708;2023-05-10T10:27:04;5.20;;;2.22;;
80215;SDS011;69532;37.974;23.708;2023-05-10T10:29:58;5.18;;;2.17;;
80215;SDS011;69532;37.974;23.708;2023-05-10T10:35:38;4.78;;;2.00;;
80215;SDS011;69532;37.974;23.708;2023-05-10T10:38:05;6.13;;;2.20;;
80215;SDS011;69532;37.974;23.708;2023-05-10T10:40:33;4.88;;;1.77;;
80215;SDS011;69532;37.974;23.708;2023-05-10T10:48:43;5.38;;;2.10;;
80215;SDS011;69532;37.974;23.708;2023-05-10T10:51:13;5.50;;;2.08;;
80215;SDS011;69532;37.974;23.708;2023-05-10T10:53:39;5.97;;;2.28;;
80215;SDS011;69532;37.974;23.708;2023-05-10T10:56:12;5.55;;;1.85;;
80215;SDS011;69532;37.974;23.708;2023-05-10T10:58:40;5.30;;;1.80;;
80215;SDS011;69532;37.974;23.708;2023-05-10T11:03:39;5.13;;;2.17;;
80215;SDS011;69532;37.974;23.708;2023-05-10T11:06:05;5.88;;;2.40;;
80215;SDS011;69532;37.974;23.708;2023-05-10T11:08:33;5.35;;;2.00;;
80215;SDS011;69532;37.974;23.708;2023-05-10T11:16:23;4.82;;;2.00;;
80215;SDS011;69532;37.974;23.708;2023-05-10T11:21:27;5.20;;;2.17;;
80215;SDS011;69532;37.974;23.708;2023-05-10T11:23:57;6.20;;;2.22;;
80215;SDS011;69532;37.974;23.708;2023-05-10T11:26:24;5.40;;;2.10;;
80215;SDS011;69532;37.974;23.708;2023-05-10T11:28:55;5.75;;;2.03;;
80215;SDS011;69532;37.974;23.708;2023-05-10T11:31:21;5.82;;;2.35;;
80215;SDS011;69532;37.974;23.708;2023-05-10T11:33:48;6.55;;;1.90;;
80215;SDS011;69532;37.974;23.708;2023-05-10T11:36:16;5.63;;;2.25;;
80215;SDS011;69532;37.974;23.708;2023-05-10T11:38:46;4.90;;;2.20;;
80215;SDS011;69532;37.974;23.708;2023-05-10T11:41:13;5.65;;;2.40;;
80215;SDS011;69532;37.974;23.708;2023-05-10T11:43:40;5.75;;;2.08;;
80215;SDS011;69532;37.974;23.708;2023-05-10T11:46:10;4.47;;;1.90;;
80215;SDS011;69532;37.974;23.708;2023-05-10T11:48:40;4.20;;;2.00;;
80215;SDS011;69532;37.974;23.708;2023-05-10T11:51:10;6.22;;;2.28;;
80215;SDS011;69532;37.974;23.708;2023-05-10T11:53:36;5.15;;;2.10;;
80215;SDS011;69532;37.974;23.708;2023-05-10T11:56:09;5.03;;;2.20;;
80215;SDS011;69532;37.974;23.708;2023-05-10T11:58:36;5.13;;;2.30;;
80215;SDS011;69532;37.974;23.708;2023-05-10T12:01:03;5.35;;;2.20;;
80215;SDS011;69532;37.974;23.708;2023-05-10T12:03:30;5.20;;;2.28;;
80215;SDS011;69532;37.974;23.708;2023-05-10T12:05:56;5.55;;;2.30;;
80215;SDS011;69532;37.974;23.708;2023-05-10T12:08:24;5.55;;;2.10;;
80215;SDS011;69532;37.974;23.708;2023-05-10T12:10:51;5.28;;;2.30;;
80215;SDS011;69532;37.974;23.708;2023-05-10T12:13:18;5.70;;;2.13;;
80215;SDS011;69532;37.974;23.708;2023-05-10T12:15:45;5.43;;;2.20;;
80215;SDS011;69532;37.974;23.708;2023-05-10T12:18:12;5.60;;;2.33;;
80215;SDS011;69532;37.974;23.708;2023-05-10T12:20:38;5.63;;;2.45;;
80215;SDS011;69532;37.974;23.708;2023-05-10T12:23:05;7.00;;;2.20;;
80215;SDS011;69532;37.974;23.708;2023-05-10T12:25:33;5.38;;;2.22;;
80215;SDS011;69532;37.974;23.708;2023-05-10T12:28:02;5.80;;;2.17;;
80215;SDS011;69532;37.974;23.708;2023-05-10T12:30:33;5.22;;;2.20;;
80215;SDS011;69532;37.974;23.708;2023-05-10T12:33:00;5.97;;;2.20;;
80215;SDS011;69532;37.974;23.708;2023-05-10T12:35:31;6.20;;;2.40;;
80215;SDS011;69532;37.974;23.708;2023-05-10T12:37:57;5.07;;;2.47;;
80215;SDS011;69532;37.974;23.708;2023-05-10T12:40:23;5.55;;;2.58;;
80215;SDS011;69532;37.974;23.708;2023-05-10T12:42:49;5.75;;;2.30;;
80215;SDS011;69532;37.974;23.708;2023-05-10T12:45:15;5.28;;;2.22;;
80215;SDS011;69532;37.974;23.708;2023-05-10T12:47:43;5.00;;;2.10;;
80215;SDS011;69532;37.974;23.708;2023-05-10T12:50:08;5.60;;;2.42;;
80215;SDS011;69532;37.974;23.708;2023-05-10T12:52:35;5.40;;;2.03;;
80215;SDS011;69532;37.974;23.708;2023-05-10T12:55:01;5.60;;;2.25;;
80215;SDS011;69532;37.974;23.708;2023-05-10T12:57:28;4.95;;;2.35;;
80215;SDS011;69532;37.974;23.708;2023-05-10T12:59:54;5.55;;;2.22;;
80215;SDS011;69532;37.974;23.708;2023-05-10T13:02:20;5.20;;;2.20;;
80215;SDS011;69532;37.974;23.708;2023-05-10T13:04:47;5.40;;;2.40;;
80215;SDS011;69532;37.974;23.708;2023-05-10T13:07:13;4.75;;;2.33;;
80215;SDS011;69532;37.974;23.708;2023-05-10T13:09:39;5.63;;;2.63;;
80215;SDS011;69532;37.974;23.708;2023-05-10T13:12:05;5.55;;;2.22;;
80215;SDS011;69532;37.974;23.708;2023-05-10T13:14:31;4.38;;;2.10;;
80215;SDS011;69532;37.974;23.708;2023-05-10T13:16:57;5.35;;;2.40;;
80215;SDS011;69532;37.974;23.708;2023-05-10T13:19:22;4.90;;;2.45;;
80215;SDS011;69532;37.974;23.708;2023-05-10T13:21:48;4.93;;;2.10;;
80215;SDS011;69532;37.974;23.708;2023-05-10T13:24:14;4.82;;;2.13;;
80215;SDS011;69532;37.974;23.708;2023-05-10T13:26:40;7.18;;;2.35;;
80215;SDS011;69532;37.974;23.708;2023-05-10T13:29:06;4.95;;;2.03;;
80215;SDS011;69532;37.974;23.708;2023-05-10T13:31:33;5.93;;;2.22;;
80215;SDS011;69532;37.974;23.708;2023-05-10T13:33:59;5.13;;;2.10;;
80215;SDS011;69532;37.974;23.708;2023-05-10T13:36:25;4.93;;;2.40;;
80215;SDS011;69532;37.974;23.708;2023-05-10T13:38:51;5.25;;;2.40;;
80215;SDS011;69532;37.974;23.708;2023-05-10T13:41:17;5.18;;;2.20;;
80215;SDS011;69532;37.974;23.708;2023-05-10T13:43:43;5.85;;;2.40;;
80215;SDS011;69532;37.974;23.708;2023-05-10T13:46:09;5.00;;;2.20;;
80215;SDS011;69532;37.974;23.708;2023-05-10T13:48:34;4.25;;;2.20;;
80215;SDS011;69532;37.974;23.708;2023-05-10T13:51:02;5.03;;;2.47;;
80215;SDS011;69532;37.974;23.708;2023-05-10T13:53:28;7.28;;;3.55;;
80215;SDS011;69532;37.974;23.708;2023-05-10T13:55:53;9.65;;;5.43;;
80215;SDS011;69532;37.974;23.708;2023-05-10T13:58:19;11.73;;;7.53;;
80215;SDS011;69532;37.974;23.708;2023-05-10T14:00:45;13.85;;;10.15;;
80215;SDS011;69532;37.974;23.708;2023-05-10T14:03:10;20.77;;;15.25;;
80215;SDS011;69532;37.974;23.708;2023-05-10T14:05:36;21.52;;;15.77;;
80215;SDS011;69532;37.974;23.708;2023-05-10T14:08:02;20.70;;;16.48;;
80215;SDS011;69532;37.974;23.708;2023-05-10T14:10:28;23.55;;;18.55;;
80215;SDS011;69532;37.974;23.708;2023-05-10T14:12:55;26.25;;;19.52;;
80215;SDS011;69532;37.974;23.708;2023-05-10T14:15:20;24.60;;;18.80;;
80215;SDS011;69532;37.974;23.708;2023-05-10T14:17:46;24.75;;;19.17;;
80215;SDS011;69532;37.974;23.708;2023-05-10T14:20:12;22.33;;;17.75;;
80215;SDS011;69532;37.974;23.708;2023-05-10T14:22:38;21.05;;;16.95;;
80215;SDS011;69532;37.974;23.708;2023-05-10T14:25:04;19.67;;;14.52;;
80215;SDS011;69532;37.974;23.708;2023-05-10T14:27:29;18.73;;;13.73;;
80215;SDS011;69532;37.974;23.708;2023-05-10T14:29:55;16.67;;;12.27;;
80215;SDS011;69532;37.974;23.708;2023-05-10T14:32:21;15.25;;;11.30;;
80215;SDS011;69532;37.974;23.708;2023-05-10T14:34:46;14.00;;;10.10;;
80215;SDS011;69532;37.974;23.708;2023-05-10T14:37:12;13.48;;;9.05;;
80215;SDS011;69532;37.974;23.708;2023-05-10T14:39:38;12.90;;;8.80;;
80215;SDS011;69532;37.974;23.708;2023-05-10T14:42:04;10.68;;;7.43;;
80215;SDS011;69532;37.974;23.708;2023-05-10T14:44:30;12.43;;;6.72;;
80215;SDS011;69532;37.974;23.708;2023-05-10T14:46:56;10.32;;;6.22;;
80215;SDS011;69532;37.974;23.708;2023-05-10T14:49:22;10.13;;;5.88;;
80215;SDS011;69532;37.974;23.708;2023-05-10T14:51:50;9.68;;;5.60;;
80215;SDS011;69532;37.974;23.708;2023-05-10T14:54:16;7.30;;;4.80;;
80215;SDS011;69532;37.974;23.708;2023-05-10T14:56:42;7.82;;;4.45;;
80215;SDS011;69532;37.974;23.708;2023-05-10T14:59:08;7.55;;;4.15;;
80215;SDS011;69532;37.974;23.708;2023-05-10T15:01:33;7.18;;;4.35;;
80215;SDS011;69532;37.974;23.708;2023-05-10T15:04:02;7.75;;;4.40;;
80215;SDS011;69532;37.974;23.708;2023-05-10T15:06:32;7.72;;;4.13;;
80215;SDS011;69532;37.974;23.708;2023-05-10T15:08:59;7.47;;;3.85;;
80215;SDS011;69532;37.974;23.708;2023-05-10T15:11:25;6.47;;;3.50;;